TFM - Tactical Decision Aid
ID: Runway Winds: CIG/VIS Threshold:

KFST - Fort Stockton/Pecos, TX, US

Updated at: 1504 UTC 22 Apr 2021
Latest TAF at: 1120 UTC 22 Apr 2021

TAF Board

Time<<23/04Z 23/05Z 23/06Z 23/07Z 23/08Z 23/09Z 23/10Z 23/11Z 23/12Z 23/13Z 23/14Z 23/15Z 23/16Z>>
Type PRVL PRVL PRVL PRVL PRVL PRVL PRVL PRVL
VIS >6 >6 >6 >6 >6 >6 >6 >6
CIG -- -- -- -- -- -- -- --
Cover SCT SCT SCT SCT SCT SCT SCT SCT
FltCat VFR VFR VFR VFR VFR VFR VFR VFR
WX -- -- -- -- -- -- -- --
WDir 160 160 160 160 160 160 160 160
WSpd 11 11 11 11 11 11 11 11
WGst 17 17 17 17 17 17 17 17

TDA Impact Legend

  None Marginal Slight Moderate High
Visibility (sm) >5 3≤X≤5 2≤X<3 1≤X<2 <1
Ceiling (100 ft) >30 10≤X≤30 8≤X<10 3≤X<8 <3
Wind Speed (kt) <15 15≤X<25 25≤X<30 ≥30
Wind Gust (kt) <15 15≤X<25 25≤X<35 ≥35
Weather No Wx Reported VCTS -TS,-FZRA TS,FZRA +TS,+FZRA
TAF
KFST 221120Z 2212/2312 12010KT P6SM SCT250
  FM221500 16011G17KT P6SM SCT250


Radar Display
Forecast Discussion